sensor_id;sensor_type;location;lat;lon;timestamp;P1;durP1;ratioP1;P2;durP2;ratioP2
55067;SDS011;40965;52.368;9.712;2023-08-24T00:01:53;3.50;;;2.53;;
55067;SDS011;40965;52.368;9.712;2023-08-24T00:04:20;2.97;;;2.65;;
55067;SDS011;40965;52.368;9.712;2023-08-24T00:06:47;2.15;;;1.95;;
55067;SDS011;40965;52.368;9.712;2023-08-24T00:09:15;2.78;;;2.55;;
55067;SDS011;40965;52.368;9.712;2023-08-24T00:11:42;3.17;;;2.88;;
55067;SDS011;40965;52.368;9.712;2023-08-24T00:14:09;2.55;;;2.42;;
55067;SDS011;40965;52.368;9.712;2023-08-24T00:16:36;2.25;;;1.73;;
55067;SDS011;40965;52.368;9.712;2023-08-24T00:19:03;4.47;;;2.20;;
55067;SDS011;40965;52.368;9.712;2023-08-24T00:21:30;3.30;;;2.55;;
55067;SDS011;40965;52.368;9.712;2023-08-24T00:23:57;5.53;;;2.70;;
55067;SDS011;40965;52.368;9.712;2023-08-24T00:26:24;2.35;;;1.85;;
55067;SDS011;40965;52.368;9.712;2023-08-24T00:28:51;3.38;;;1.77;;
55067;SDS011;40965;52.368;9.712;2023-08-24T00:31:18;5.38;;;2.33;;
55067;SDS011;40965;52.368;9.712;2023-08-24T00:33:45;3.60;;;2.53;;
55067;SDS011;40965;52.368;9.712;2023-08-24T00:36:12;3.25;;;2.08;;
55067;SDS011;40965;52.368;9.712;2023-08-24T00:38:38;4.88;;;2.42;;
55067;SDS011;40965;52.368;9.712;2023-08-24T00:41:05;6.22;;;2.15;;
55067;SDS011;40965;52.368;9.712;2023-08-24T00:43:31;2.85;;;2.63;;
55067;SDS011;40965;52.368;9.712;2023-08-24T00:45:59;2.65;;;2.45;;
55067;SDS011;40965;52.368;9.712;2023-08-24T00:48:29;3.40;;;2.50;;
55067;SDS011;40965;52.368;9.712;2023-08-24T00:50:56;2.35;;;2.15;;
55067;SDS011;40965;52.368;9.712;2023-08-24T00:53:25;2.13;;;1.90;;
55067;SDS011;40965;52.368;9.712;2023-08-24T00:55:54;2.90;;;2.00;;
55067;SDS011;40965;52.368;9.712;2023-08-24T00:58:23;3.25;;;2.22;;
55067;SDS011;40965;52.368;9.712;2023-08-24T01:00:50;3.00;;;2.70;;
55067;SDS011;40965;52.368;9.712;2023-08-24T01:03:19;3.33;;;1.98;;
55067;SDS011;40965;52.368;9.712;2023-08-24T01:05:49;3.63;;;2.30;;
55067;SDS011;40965;52.368;9.712;2023-08-24T01:08:15;2.72;;;1.70;;
55067;SDS011;40965;52.368;9.712;2023-08-24T01:10:48;1.98;;;1.88;;
55067;SDS011;40965;52.368;9.712;2023-08-24T01:13:32;3.28;;;2.60;;
55067;SDS011;40965;52.368;9.712;2023-08-24T01:16:13;2.30;;;2.10;;
55067;SDS011;40965;52.368;9.712;2023-08-24T01:18:45;4.70;;;3.50;;
55067;SDS011;40965;52.368;9.712;2023-08-24T01:21:13;3.13;;;1.98;;
55067;SDS011;40965;52.368;9.712;2023-08-24T01:23:44;5.55;;;2.92;;
55067;SDS011;40965;52.368;9.712;2023-08-24T01:26:38;5.10;;;2.60;;
55067;SDS011;40965;52.368;9.712;2023-08-24T01:29:06;4.20;;;2.30;;
55067;SDS011;40965;52.368;9.712;2023-08-24T01:31:33;2.67;;;2.40;;
55067;SDS011;40965;52.368;9.712;2023-08-24T01:34:00;6.03;;;3.00;;
55067;SDS011;40965;52.368;9.712;2023-08-24T01:36:26;3.85;;;2.67;;
55067;SDS011;40965;52.368;9.712;2023-08-24T01:38:55;3.10;;;2.80;;
55067;SDS011;40965;52.368;9.712;2023-08-24T01:41:47;3.88;;;2.20;;
55067;SDS011;40965;52.368;9.712;2023-08-24T01:44:19;4.32;;;2.47;;
55067;SDS011;40965;52.368;9.712;2023-08-24T01:46:48;2.95;;;2.70;;
55067;SDS011;40965;52.368;9.712;2023-08-24T01:49:20;4.05;;;3.10;;
55067;SDS011;40965;52.368;9.712;2023-08-24T01:51:48;3.20;;;2.65;;
55067;SDS011;40965;52.368;9.712;2023-08-24T01:54:16;3.63;;;3.33;;
55067;SDS011;40965;52.368;9.712;2023-08-24T01:56:43;2.72;;;2.53;;
55067;SDS011;40965;52.368;9.712;2023-08-24T01:59:10;3.35;;;3.05;;
55067;SDS011;40965;52.368;9.712;2023-08-24T02:01:36;5.70;;;2.60;;
55067;SDS011;40965;52.368;9.712;2023-08-24T02:04:03;4.90;;;2.60;;
55067;SDS011;40965;52.368;9.712;2023-08-24T02:06:30;3.85;;;2.65;;
55067;SDS011;40965;52.368;9.712;2023-08-24T02:08:57;4.28;;;3.20;;
55067;SDS011;40965;52.368;9.712;2023-08-24T02:11:23;4.40;;;2.80;;
55067;SDS011;40965;52.368;9.712;2023-08-24T02:13:50;6.90;;;2.75;;
55067;SDS011;40965;52.368;9.712;2023-08-24T02:16:16;2.90;;;2.67;;
55067;SDS011;40965;52.368;9.712;2023-08-24T02:18:43;3.22;;;2.20;;
55067;SDS011;40965;52.368;9.712;2023-08-24T02:21:12;2.55;;;2.22;;
55067;SDS011;40965;52.368;9.712;2023-08-24T02:23:41;3.10;;;2.90;;
55067;SDS011;40965;52.368;9.712;2023-08-24T02:26:08;3.50;;;2.75;;
55067;SDS011;40965;52.368;9.712;2023-08-24T02:28:36;4.68;;;3.28;;
55067;SDS011;40965;52.368;9.712;2023-08-24T02:31:04;5.85;;;3.97;;
55067;SDS011;40965;52.368;9.712;2023-08-24T02:33:31;12.90;;;4.00;;
55067;SDS011;40965;52.368;9.712;2023-08-24T02:36:02;3.22;;;2.97;;
55067;SDS011;40965;52.368;9.712;2023-08-24T02:38:29;3.78;;;3.28;;
55067;SDS011;40965;52.368;9.712;2023-08-24T02:41:02;3.85;;;3.40;;
55067;SDS011;40965;52.368;9.712;2023-08-24T02:43:30;5.07;;;3.70;;
55067;SDS011;40965;52.368;9.712;2023-08-24T02:46:01;6.75;;;3.67;;
55067;SDS011;40965;52.368;9.712;2023-08-24T02:48:34;5.40;;;3.72;;
55067;SDS011;40965;52.368;9.712;2023-08-24T02:51:02;3.38;;;3.08;;
55067;SDS011;40965;52.368;9.712;2023-08-24T02:53:33;4.40;;;3.08;;
55067;SDS011;40965;52.368;9.712;2023-08-24T02:56:00;3.97;;;3.40;;
55067;SDS011;40965;52.368;9.712;2023-08-24T02:58:27;4.30;;;3.67;;
55067;SDS011;40965;52.368;9.712;2023-08-24T03:00:54;5.07;;;4.32;;
55067;SDS011;40965;52.368;9.712;2023-08-24T03:03:22;4.47;;;3.45;;
55067;SDS011;40965;52.368;9.712;2023-08-24T03:05:54;4.10;;;3.00;;
55067;SDS011;40965;52.368;9.712;2023-08-24T03:08:40;4.78;;;3.40;;
55067;SDS011;40965;52.368;9.712;2023-08-24T03:11:06;4.90;;;3.20;;
55067;SDS011;40965;52.368;9.712;2023-08-24T03:13:35;3.67;;;3.20;;
55067;SDS011;40965;52.368;9.712;2023-08-24T03:16:04;9.75;;;3.28;;
55067;SDS011;40965;52.368;9.712;2023-08-24T03:18:32;6.03;;;3.13;;
55067;SDS011;40965;52.368;9.712;2023-08-24T03:20:59;5.63;;;3.05;;
55067;SDS011;40965;52.368;9.712;2023-08-24T03:23:26;5.22;;;3.70;;
55067;SDS011;40965;52.368;9.712;2023-08-24T03:25:54;3.22;;;2.95;;
55067;SDS011;40965;52.368;9.712;2023-08-24T03:28:21;4.78;;;3.33;;
55067;SDS011;40965;52.368;9.712;2023-08-24T03:30:49;4.22;;;4.00;;
55067;SDS011;40965;52.368;9.712;2023-08-24T03:33:19;3.55;;;3.22;;
55067;SDS011;40965;52.368;9.712;2023-08-24T03:35:46;7.95;;;4.80;;
55067;SDS011;40965;52.368;9.712;2023-08-24T03:38:13;5.43;;;4.30;;
55067;SDS011;40965;52.368;9.712;2023-08-24T03:40:40;4.35;;;3.95;;
55067;SDS011;40965;52.368;9.712;2023-08-24T03:43:07;14.00;;;3.97;;
55067;SDS011;40965;52.368;9.712;2023-08-24T03:45:33;4.80;;;4.30;;
55067;SDS011;40965;52.368;9.712;2023-08-24T03:48:00;4.43;;;4.03;;
55067;SDS011;40965;52.368;9.712;2023-08-24T03:50:26;4.63;;;3.20;;
55067;SDS011;40965;52.368;9.712;2023-08-24T03:52:53;6.68;;;4.50;;
55067;SDS011;40965;52.368;9.712;2023-08-24T03:55:20;5.40;;;4.47;;
55067;SDS011;40965;52.368;9.712;2023-08-24T03:57:50;4.88;;;4.00;;
55067;SDS011;40965;52.368;9.712;2023-08-24T04:00:16;5.47;;;4.20;;
55067;SDS011;40965;52.368;9.712;2023-08-24T04:02:44;7.45;;;4.68;;
55067;SDS011;40965;52.368;9.712;2023-08-24T04:05:10;5.70;;;5.10;;
55067;SDS011;40965;52.368;9.712;2023-08-24T04:07:37;8.00;;;5.55;;
55067;SDS011;40965;52.368;9.712;2023-08-24T04:10:05;9.38;;;5.00;;
55067;SDS011;40965;52.368;9.712;2023-08-24T04:12:33;7.15;;;5.18;;
55067;SDS011;40965;52.368;9.712;2023-08-24T04:15:00;7.03;;;4.72;;
55067;SDS011;40965;52.368;9.712;2023-08-24T04:17:26;9.55;;;6.50;;
55067;SDS011;40965;52.368;9.712;2023-08-24T04:19:59;5.40;;;4.35;;
55067;SDS011;40965;52.368;9.712;2023-08-24T04:22:27;7.03;;;5.60;;
55067;SDS011;40965;52.368;9.712;2023-08-24T04:24:54;6.72;;;5.03;;
55067;SDS011;40965;52.368;9.712;2023-08-24T04:27:20;6.10;;;5.00;;
55067;SDS011;40965;52.368;9.712;2023-08-24T04:29:47;4.70;;;4.20;;
55067;SDS011;40965;52.368;9.712;2023-08-24T04:32:15;10.45;;;5.70;;
55067;SDS011;40965;52.368;9.712;2023-08-24T04:34:41;8.50;;;5.40;;
55067;SDS011;40965;52.368;9.712;2023-08-24T04:37:08;8.75;;;4.63;;
55067;SDS011;40965;52.368;9.712;2023-08-24T04:39:36;6.43;;;4.07;;
55067;SDS011;40965;52.368;9.712;2023-08-24T04:42:02;7.90;;;4.93;;
55067;SDS011;40965;52.368;9.712;2023-08-24T04:44:29;10.32;;;6.40;;
55067;SDS011;40965;52.368;9.712;2023-08-24T04:46:56;17.70;;;7.72;;
55067;SDS011;40965;52.368;9.712;2023-08-24T04:49:22;31.58;;;8.38;;
55067;SDS011;40965;52.368;9.712;2023-08-24T04:51:49;8.50;;;6.25;;
55067;SDS011;40965;52.368;9.712;2023-08-24T04:54:18;20.58;;;6.45;;
55067;SDS011;40965;52.368;9.712;2023-08-24T04:56:44;13.05;;;6.35;;
55067;SDS011;40965;52.368;9.712;2023-08-24T04:59:11;10.60;;;6.82;;
55067;SDS011;40965;52.368;9.712;2023-08-24T05:01:38;11.90;;;7.20;;
55067;SDS011;40965;52.368;9.712;2023-08-24T05:04:04;6.60;;;5.38;;
55067;SDS011;40965;52.368;9.712;2023-08-24T05:06:31;17.75;;;6.72;;
55067;SDS011;40965;52.368;9.712;2023-08-24T05:08:58;8.63;;;6.88;;
55067;SDS011;40965;52.368;9.712;2023-08-24T05:11:26;8.07;;;6.28;;
55067;SDS011;40965;52.368;9.712;2023-08-24T05:13:55;10.27;;;5.72;;
55067;SDS011;40965;52.368;9.712;2023-08-24T05:16:22;5.68;;;5.15;;
55067;SDS011;40965;52.368;9.712;2023-08-24T05:18:48;7.40;;;5.70;;
55067;SDS011;40965;52.368;9.712;2023-08-24T05:21:15;7.63;;;5.90;;
55067;SDS011;40965;52.368;9.712;2023-08-24T05:23:41;9.63;;;5.65;;
55067;SDS011;40965;52.368;9.712;2023-08-24T05:26:08;9.05;;;6.28;;
55067;SDS011;40965;52.368;9.712;2023-08-24T05:28:35;6.57;;;5.82;;
55067;SDS011;40965;52.368;9.712;2023-08-24T05:31:02;7.47;;;5.00;;
55067;SDS011;40965;52.368;9.712;2023-08-24T05:33:28;7.25;;;6.45;;
55067;SDS011;40965;52.368;9.712;2023-08-24T05:35:56;6.25;;;5.63;;
55067;SDS011;40965;52.368;9.712;2023-08-24T05:38:23;7.07;;;5.60;;
55067;SDS011;40965;52.368;9.712;2023-08-24T05:40:51;8.10;;;5.32;;
55067;SDS011;40965;52.368;9.712;2023-08-24T05:43:18;5.15;;;4.60;;
55067;SDS011;40965;52.368;9.712;2023-08-24T05:45:45;7.45;;;6.18;;
55067;SDS011;40965;52.368;9.712;2023-08-24T05:48:12;7.63;;;5.63;;
55067;SDS011;40965;52.368;9.712;2023-08-24T05:50:43;7.10;;;5.22;;
55067;SDS011;40965;52.368;9.712;2023-08-24T05:53:13;10.35;;;6.95;;
55067;SDS011;40965;52.368;9.712;2023-08-24T05:55:40;9.77;;;5.70;;
55067;SDS011;40965;52.368;9.712;2023-08-24T05:58:08;6.85;;;5.97;;
55067;SDS011;40965;52.368;9.712;2023-08-24T06:00:35;9.13;;;6.63;;
55067;SDS011;40965;52.368;9.712;2023-08-24T06:03:02;5.65;;;5.05;;
55067;SDS011;40965;52.368;9.712;2023-08-24T06:05:30;14.02;;;6.97;;
55067;SDS011;40965;52.368;9.712;2023-08-24T06:07:57;8.93;;;6.07;;
55067;SDS011;40965;52.368;9.712;2023-08-24T06:10:25;11.32;;;6.60;;
55067;SDS011;40965;52.368;9.712;2023-08-24T06:12:52;11.32;;;6.22;;
55067;SDS011;40965;52.368;9.712;2023-08-24T06:15:19;8.30;;;5.93;;
55067;SDS011;40965;52.368;9.712;2023-08-24T06:17:50;9.10;;;5.35;;
55067;SDS011;40965;52.368;9.712;2023-08-24T06:20:17;10.90;;;5.50;;
55067;SDS011;40965;52.368;9.712;2023-08-24T06:22:45;11.25;;;5.88;;
55067;SDS011;40965;52.368;9.712;2023-08-24T06:25:12;8.52;;;4.82;;
55067;SDS011;40965;52.368;9.712;2023-08-24T06:27:39;10.07;;;6.13;;
55067;SDS011;40965;52.368;9.712;2023-08-24T06:30:06;11.43;;;6.22;;
55067;SDS011;40965;52.368;9.712;2023-08-24T06:32:33;12.95;;;6.85;;
55067;SDS011;40965;52.368;9.712;2023-08-24T06:35:00;10.50;;;6.70;;
55067;SDS011;40965;52.368;9.712;2023-08-24T06:37:27;13.85;;;6.47;;
55067;SDS011;40965;52.368;9.712;2023-08-24T06:39:54;11.68;;;6.70;;
55067;SDS011;40965;52.368;9.712;2023-08-24T06:42:21;11.20;;;7.25;;
55067;SDS011;40965;52.368;9.712;2023-08-24T06:44:48;7.30;;;6.00;;
55067;SDS011;40965;52.368;9.712;2023-08-24T06:47:15;11.63;;;6.43;;
55067;SDS011;40965;52.368;9.712;2023-08-24T06:49:42;6.75;;;5.50;;
55067;SDS011;40965;52.368;9.712;2023-08-24T06:52:09;8.85;;;5.50;;
55067;SDS011;40965;52.368;9.712;2023-08-24T06:54:36;12.80;;;5.45;;
55067;SDS011;40965;52.368;9.712;2023-08-24T06:57:02;6.90;;;4.78;;
55067;SDS011;40965;52.368;9.712;2023-08-24T06:59:29;5.15;;;4.18;;
55067;SDS011;40965;52.368;9.712;2023-08-24T07:01:56;11.80;;;4.95;;
55067;SDS011;40965;52.368;9.712;2023-08-24T07:04:23;6.15;;;4.95;;
55067;SDS011;40965;52.368;9.712;2023-08-24T07:06:51;10.48;;;5.45;;
55067;SDS011;40965;52.368;9.712;2023-08-24T07:09:18;10.00;;;4.78;;
55067;SDS011;40965;52.368;9.712;2023-08-24T07:11:46;5.43;;;4.53;;
55067;SDS011;40965;52.368;9.712;2023-08-24T07:14:12;6.32;;;4.70;;
55067;SDS011;40965;52.368;9.712;2023-08-24T07:16:39;5.65;;;4.53;;
55067;SDS011;40965;52.368;9.712;2023-08-24T07:19:06;8.05;;;4.60;;
55067;SDS011;40965;52.368;9.712;2023-08-24T07:21:33;7.03;;;4.90;;
55067;SDS011;40965;52.368;9.712;2023-08-24T07:24:00;4.32;;;4.03;;
55067;SDS011;40965;52.368;9.712;2023-08-24T07:26:27;9.65;;;5.30;;
55067;SDS011;40965;52.368;9.712;2023-08-24T07:28:55;5.05;;;4.07;;
55067;SDS011;40965;52.368;9.712;2023-08-24T07:31:22;5.40;;;4.38;;
55067;SDS011;40965;52.368;9.712;2023-08-24T07:33:48;6.13;;;5.50;;
55067;SDS011;40965;52.368;9.712;2023-08-24T07:36:15;5.20;;;4.43;;
55067;SDS011;40965;52.368;9.712;2023-08-24T07:38:42;4.95;;;4.43;;
55067;SDS011;40965;52.368;9.712;2023-08-24T07:41:09;5.22;;;4.30;;
55067;SDS011;40965;52.368;9.712;2023-08-24T07:43:37;4.82;;;4.30;;
55067;SDS011;40965;52.368;9.712;2023-08-24T07:46:03;4.25;;;3.80;;
55067;SDS011;40965;52.368;9.712;2023-08-24T07:48:30;4.32;;;3.95;;
55067;SDS011;40965;52.368;9.712;2023-08-24T07:50:59;6.95;;;3.75;;
55067;SDS011;40965;52.368;9.712;2023-08-24T07:53:26;9.90;;;4.35;;
55067;SDS011;40965;52.368;9.712;2023-08-24T07:55:53;4.18;;;3.80;;
55067;SDS011;40965;52.368;9.712;2023-08-24T07:58:22;6.18;;;3.85;;
55067;SDS011;40965;52.368;9.712;2023-08-24T08:00:49;6.63;;;4.60;;
55067;SDS011;40965;52.368;9.712;2023-08-24T08:03:17;5.40;;;3.88;;
55067;SDS011;40965;52.368;9.712;2023-08-24T08:05:45;3.95;;;3.53;;
55067;SDS011;40965;52.368;9.712;2023-08-24T08:08:13;4.55;;;3.35;;
55067;SDS011;40965;52.368;9.712;2023-08-24T08:10:40;4.63;;;3.67;;
55067;SDS011;40965;52.368;9.712;2023-08-24T08:13:07;4.28;;;3.20;;
55067;SDS011;40965;52.368;9.712;2023-08-24T08:15:36;3.75;;;3.42;;
55067;SDS011;40965;52.368;9.712;2023-08-24T08:18:04;3.47;;;3.17;;
55067;SDS011;40965;52.368;9.712;2023-08-24T08:20:32;5.03;;;3.35;;
55067;SDS011;40965;52.368;9.712;2023-08-24T08:22:58;4.32;;;2.97;;
55067;SDS011;40965;52.368;9.712;2023-08-24T08:25:25;5.13;;;3.28;;
55067;SDS011;40965;52.368;9.712;2023-08-24T08:27:51;4.88;;;2.63;;
55067;SDS011;40965;52.368;9.712;2023-08-24T08:30:18;2.97;;;2.78;;
55067;SDS011;40965;52.368;9.712;2023-08-24T08:32:45;3.42;;;2.90;;
55067;SDS011;40965;52.368;9.712;2023-08-24T08:35:12;2.58;;;2.25;;
55067;SDS011;40965;52.368;9.712;2023-08-24T08:37:38;2.85;;;2.65;;
55067;SDS011;40965;52.368;9.712;2023-08-24T08:40:05;3.03;;;2.83;;
55067;SDS011;40965;52.368;9.712;2023-08-24T08:42:37;4.60;;;2.70;;
55067;SDS011;40965;52.368;9.712;2023-08-24T08:45:04;5.32;;;2.42;;
55067;SDS011;40965;52.368;9.712;2023-08-24T08:47:35;3.22;;;2.55;;
55067;SDS011;40965;52.368;9.712;2023-08-24T08:50:07;2.90;;;2.70;;
55067;SDS011;40965;52.368;9.712;2023-08-24T08:52:35;5.70;;;2.53;;
55067;SDS011;40965;52.368;9.712;2023-08-24T08:55:01;2.92;;;2.67;;
55067;SDS011;40965;52.368;9.712;2023-08-24T08:57:31;4.10;;;2.35;;
55067;SDS011;40965;52.368;9.712;2023-08-24T08:59:59;7.10;;;2.83;;
55067;SDS011;40965;52.368;9.712;2023-08-24T09:02:25;3.45;;;2.50;;
55067;SDS011;40965;52.368;9.712;2023-08-24T09:04:52;2.75;;;2.55;;
55067;SDS011;40965;52.368;9.712;2023-08-24T09:07:18;4.78;;;2.78;;
55067;SDS011;40965;52.368;9.712;2023-08-24T09:09:45;4.53;;;2.60;;
55067;SDS011;40965;52.368;9.712;2023-08-24T09:12:12;3.15;;;2.38;;
55067;SDS011;40965;52.368;9.712;2023-08-24T09:14:39;2.33;;;2.13;;
55067;SDS011;40965;52.368;9.712;2023-08-24T09:17:06;2.45;;;2.25;;
55067;SDS011;40965;52.368;9.712;2023-08-24T09:19:33;2.75;;;2.05;;
55067;SDS011;40965;52.368;9.712;2023-08-24T09:22:03;5.07;;;2.30;;
55067;SDS011;40965;52.368;9.712;2023-08-24T09:24:33;2.78;;;1.90;;
55067;SDS011;40965;52.368;9.712;2023-08-24T09:27:13;2.65;;;2.42;;
55067;SDS011;40965;52.368;9.712;2023-08-24T09:29:51;2.97;;;2.58;;
55067;SDS011;40965;52.368;9.712;2023-08-24T09:32:22;4.05;;;2.92;;
55067;SDS011;40965;52.368;9.712;2023-08-24T09:34:59;3.50;;;2.47;;
55067;SDS011;40965;52.368;9.712;2023-08-24T09:37:34;2.83;;;2.53;;
55067;SDS011;40965;52.368;9.712;2023-08-24T09:40:05;2.53;;;2.33;;
55067;SDS011;40965;52.368;9.712;2023-08-24T09:42:40;3.35;;;3.10;;
55067;SDS011;40965;52.368;9.712;2023-08-24T09:45:13;3.90;;;2.50;;
55067;SDS011;40965;52.368;9.712;2023-08-24T09:47:44;3.97;;;2.28;;
55067;SDS011;40965;52.368;9.712;2023-08-24T09:50:18;8.55;;;3.97;;
55067;SDS011;40965;52.368;9.712;2023-08-24T09:52:45;4.30;;;2.05;;
55067;SDS011;40965;52.368;9.712;2023-08-24T09:55:15;4.53;;;2.08;;
55067;SDS011;40965;52.368;9.712;2023-08-24T09:57:47;3.38;;;2.22;;
55067;SDS011;40965;52.368;9.712;2023-08-24T10:00:20;2.95;;;2.58;;
55067;SDS011;40965;52.368;9.712;2023-08-24T10:02:50;3.78;;;2.10;;
55067;SDS011;40965;52.368;9.712;2023-08-24T10:05:19;2.22;;;2.00;;
55067;SDS011;40965;52.368;9.712;2023-08-24T10:07:51;5.00;;;2.17;;
55067;SDS011;40965;52.368;9.712;2023-08-24T10:10:21;2.70;;;2.05;;
55067;SDS011;40965;52.368;9.712;2023-08-24T10:12:51;2.83;;;1.90;;
55067;SDS011;40965;52.368;9.712;2023-08-24T10:15:24;2.42;;;2.25;;
55067;SDS011;40965;52.368;9.712;2023-08-24T10:17:50;7.15;;;2.42;;
55067;SDS011;40965;52.368;9.712;2023-08-24T10:20:18;3.75;;;2.78;;
55067;SDS011;40965;52.368;9.712;2023-08-24T10:22:46;2.58;;;1.95;;
55067;SDS011;40965;52.368;9.712;2023-08-24T10:25:14;3.47;;;2.78;;
55067;SDS011;40965;52.368;9.712;2023-08-24T10:27:42;2.58;;;2.15;;
55067;SDS011;40965;52.368;9.712;2023-08-24T10:30:11;4.65;;;2.58;;
55067;SDS011;40965;52.368;9.712;2023-08-24T10:32:39;2.78;;;2.47;;
55067;SDS011;40965;52.368;9.712;2023-08-24T10:35:13;7.20;;;2.28;;
55067;SDS011;40965;52.368;9.712;2023-08-24T10:37:51;2.70;;;2.05;;
55067;SDS011;40965;52.368;9.712;2023-08-24T10:40:32;2.92;;;1.70;;
55067;SDS011;40965;52.368;9.712;2023-08-24T10:43:04;2.38;;;2.03;;
55067;SDS011;40965;52.368;9.712;2023-08-24T10:53:42;2.22;;;2.03;;
55067;SDS011;40965;52.368;9.712;2023-08-24T10:56:11;6.18;;;1.80;;
55067;SDS011;40965;52.368;9.712;2023-08-24T10:58:41;1.90;;;1.80;;
55067;SDS011;40965;52.368;9.712;2023-08-24T11:01:14;2.10;;;2.00;;
55067;SDS011;40965;52.368;9.712;2023-08-24T11:03:51;3.75;;;1.92;;
55067;SDS011;40965;52.368;9.712;2023-08-24T11:06:22;3.10;;;1.75;;
55067;SDS011;40965;52.368;9.712;2023-08-24T11:09:04;10.35;;;2.13;;
55067;SDS011;40965;52.368;9.712;2023-08-24T11:11:39;5.32;;;1.70;;
55067;SDS011;40965;52.368;9.712;2023-08-24T11:16:44;3.25;;;2.10;;
55067;SDS011;40965;52.368;9.712;2023-08-24T11:19:12;5.30;;;2.50;;
55067;SDS011;40965;52.368;9.712;2023-08-24T11:21:43;1.77;;;1.52;;
55067;SDS011;40965;52.368;9.712;2023-08-24T11:24:14;2.50;;;1.73;;
55067;SDS011;40965;52.368;9.712;2023-08-24T11:26:43;1.58;;;1.48;;
55067;SDS011;40965;52.368;9.712;2023-08-24T11:29:12;3.88;;;2.03;;
55067;SDS011;40965;52.368;9.712;2023-08-24T11:31:40;1.55;;;1.45;;
55067;SDS011;40965;52.368;9.712;2023-08-24T11:34:07;2.08;;;1.75;;
55067;SDS011;40965;52.368;9.712;2023-08-24T11:36:45;2.40;;;1.63;;
55067;SDS011;40965;52.368;9.712;2023-08-24T11:39:17;4.60;;;1.92;;
55067;SDS011;40965;52.368;9.712;2023-08-24T11:42:03;1.63;;;1.52;;
55067;SDS011;40965;52.368;9.712;2023-08-24T11:44:47;2.33;;;2.03;;
55067;SDS011;40965;52.368;9.712;2023-08-24T11:47:19;3.38;;;2.10;;
55067;SDS011;40965;52.368;9.712;2023-08-24T11:49:48;2.47;;;2.33;;
55067;SDS011;40965;52.368;9.712;2023-08-24T11:52:14;2.22;;;2.10;;
55067;SDS011;40965;52.368;9.712;2023-08-24T11:54:41;2.25;;;1.80;;
55067;SDS011;40965;52.368;9.712;2023-08-24T11:57:09;1.60;;;1.50;;
55067;SDS011;40965;52.368;9.712;2023-08-24T11:59:37;6.32;;;2.47;;
55067;SDS011;40965;52.368;9.712;2023-08-24T12:02:06;3.70;;;1.95;;
55067;SDS011;40965;52.368;9.712;2023-08-24T12:04:41;2.63;;;1.70;;
55067;SDS011;40965;52.368;9.712;2023-08-24T12:07:11;3.15;;;2.13;;
55067;SDS011;40965;52.368;9.712;2023-08-24T12:09:39;4.53;;;2.30;;
55067;SDS011;40965;52.368;9.712;2023-08-24T12:12:14;6.70;;;2.67;;
55067;SDS011;40965;52.368;9.712;2023-08-24T12:14:42;2.75;;;2.10;;
55067;SDS011;40965;52.368;9.712;2023-08-24T12:17:10;2.78;;;1.83;;
55067;SDS011;40965;52.368;9.712;2023-08-24T12:19:40;2.13;;;2.03;;
55067;SDS011;40965;52.368;9.712;2023-08-24T12:22:16;2.72;;;1.80;;
55067;SDS011;40965;52.368;9.712;2023-08-24T12:24:43;3.95;;;2.17;;
55067;SDS011;40965;52.368;9.712;2023-08-24T12:27:23;3.22;;;1.98;;
55067;SDS011;40965;52.368;9.712;2023-08-24T12:29:52;2.17;;;1.88;;
55067;SDS011;40965;52.368;9.712;2023-08-24T12:32:20;2.78;;;2.25;;
55067;SDS011;40965;52.368;9.712;2023-08-24T12:34:48;2.92;;;1.67;;
55067;SDS011;40965;52.368;9.712;2023-08-24T12:37:16;1.95;;;1.85;;
55067;SDS011;40965;52.368;9.712;2023-08-24T12:39:44;4.20;;;2.13;;
55067;SDS011;40965;52.368;9.712;2023-08-24T12:42:11;2.42;;;1.73;;
55067;SDS011;40965;52.368;9.712;2023-08-24T12:44:38;3.80;;;1.67;;
55067;SDS011;40965;52.368;9.712;2023-08-24T12:47:04;2.15;;;1.60;;
55067;SDS011;40965;52.368;9.712;2023-08-24T12:49:33;2.22;;;1.90;;
55067;SDS011;40965;52.368;9.712;2023-08-24T12:52:01;4.15;;;1.67;;
55067;SDS011;40965;52.368;9.712;2023-08-24T12:54:39;2.53;;;2.33;;
55067;SDS011;40965;52.368;9.712;2023-08-24T12:57:05;2.33;;;1.58;;
55067;SDS011;40965;52.368;9.712;2023-08-24T12:59:33;2.05;;;1.85;;
55067;SDS011;40965;52.368;9.712;2023-08-24T13:01:59;4.32;;;2.17;;
55067;SDS011;40965;52.368;9.712;2023-08-24T13:04:26;3.55;;;1.90;;
55067;SDS011;40965;52.368;9.712;2023-08-24T13:06:54;2.55;;;1.60;;
55067;SDS011;40965;52.368;9.712;2023-08-24T13:09:21;1.88;;;1.67;;
55067;SDS011;40965;52.368;9.712;2023-08-24T13:11:48;7.95;;;2.00;;
55067;SDS011;40965;52.368;9.712;2023-08-24T13:14:15;3.72;;;1.77;;
55067;SDS011;40965;52.368;9.712;2023-08-24T13:16:42;1.67;;;1.55;;
55067;SDS011;40965;52.368;9.712;2023-08-24T13:19:12;2.60;;;1.73;;
55067;SDS011;40965;52.368;9.712;2023-08-24T13:21:38;1.73;;;1.63;;
55067;SDS011;40965;52.368;9.712;2023-08-24T13:24:05;3.63;;;1.30;;
55067;SDS011;40965;52.368;9.712;2023-08-24T13:26:32;1.52;;;1.42;;
55067;SDS011;40965;52.368;9.712;2023-08-24T13:28:59;3.47;;;1.67;;
55067;SDS011;40965;52.368;9.712;2023-08-24T13:31:26;1.52;;;1.42;;
55067;SDS011;40965;52.368;9.712;2023-08-24T13:33:55;2.80;;;1.70;;
55067;SDS011;40965;52.368;9.712;2023-08-24T13:36:21;5.35;;;1.75;;
55067;SDS011;40965;52.368;9.712;2023-08-24T13:38:48;1.58;;;1.48;;
55067;SDS011;40965;52.368;9.712;2023-08-24T13:41:15;6.55;;;2.25;;
55067;SDS011;40965;52.368;9.712;2023-08-24T13:43:42;1.90;;;1.50;;
55067;SDS011;40965;52.368;9.712;2023-08-24T13:46:09;2.10;;;1.83;;
55067;SDS011;40965;52.368;9.712;2023-08-24T13:48:38;2.15;;;1.55;;
55067;SDS011;40965;52.368;9.712;2023-08-24T13:51:04;1.70;;;1.60;;
55067;SDS011;40965;52.368;9.712;2023-08-24T13:53:33;1.73;;;1.63;;
55067;SDS011;40965;52.368;9.712;2023-08-24T13:56:00;2.00;;;1.80;;
55067;SDS011;40965;52.368;9.712;2023-08-24T13:58:26;2.55;;;1.63;;
55067;SDS011;40965;52.368;9.712;2023-08-24T14:00:56;3.72;;;2.28;;
55067;SDS011;40965;52.368;9.712;2023-08-24T14:03:28;1.98;;;1.42;;
55067;SDS011;40965;52.368;9.712;2023-08-24T14:05:56;3.90;;;1.83;;
55067;SDS011;40965;52.368;9.712;2023-08-24T14:08:24;1.45;;;1.35;;
55067;SDS011;40965;52.368;9.712;2023-08-24T14:10:54;2.25;;;1.40;;
55067;SDS011;40965;52.368;9.712;2023-08-24T14:13:20;1.65;;;1.55;;
55067;SDS011;40965;52.368;9.712;2023-08-24T14:15:49;2.38;;;2.03;;
55067;SDS011;40965;52.368;9.712;2023-08-24T14:18:15;5.97;;;2.13;;
55067;SDS011;40965;52.368;9.712;2023-08-24T14:20:45;2.10;;;1.55;;
55067;SDS011;40965;52.368;9.712;2023-08-24T14:23:15;2.20;;;1.38;;
55067;SDS011;40965;52.368;9.712;2023-08-24T14:25:45;2.95;;;1.80;;
55067;SDS011;40965;52.368;9.712;2023-08-24T14:28:19;3.60;;;2.00;;
55067;SDS011;40965;52.368;9.712;2023-08-24T14:33:18;3.25;;;2.15;;
55067;SDS011;40965;52.368;9.712;2023-08-24T14:35:52;2.05;;;1.58;;
55067;SDS011;40965;52.368;9.712;2023-08-24T14:38:19;1.92;;;1.63;;
55067;SDS011;40965;52.368;9.712;2023-08-24T14:40:47;2.00;;;1.90;;
55067;SDS011;40965;52.368;9.712;2023-08-24T14:46:57;1.63;;;1.52;;
55067;SDS011;40965;52.368;9.712;2023-08-24T14:49:23;2.50;;;1.70;;
55067;SDS011;40965;52.368;9.712;2023-08-24T14:51:50;1.75;;;1.50;;
55067;SDS011;40965;52.368;9.712;2023-08-24T14:54:18;2.35;;;1.88;;
55067;SDS011;40965;52.368;9.712;2023-08-24T14:56:44;1.67;;;1.58;;
55067;SDS011;40965;52.368;9.712;2023-08-24T14:59:14;2.78;;;2.10;;
55067;SDS011;40965;52.368;9.712;2023-08-24T15:01:42;2.05;;;1.90;;
55067;SDS011;40965;52.368;9.712;2023-08-24T15:04:09;2.25;;;1.75;;
55067;SDS011;40965;52.368;9.712;2023-08-24T15:06:36;3.78;;;2.10;;
55067;SDS011;40965;52.368;9.712;2023-08-24T15:09:06;2.00;;;1.90;;
55067;SDS011;40965;52.368;9.712;2023-08-24T15:11:39;4.03;;;1.85;;